createdAt,value
2019-03-26T00:00:57.611Z,23.10
2019-03-26T00:03:26.974Z,21.07
2019-03-26T00:05:56.330Z,22.53
2019-03-26T00:08:25.712Z,21.80
2019-03-26T00:10:55.061Z,21.07
2019-03-26T00:13:24.441Z,24.17
2019-03-26T00:15:53.859Z,23.70
2019-03-26T00:18:23.205Z,26.03
2019-03-26T00:20:52.553Z,24.53
2019-03-26T00:23:21.891Z,25.63
2019-03-26T00:25:51.261Z,28.83
2019-03-26T00:28:20.617Z,29.37
2019-03-26T00:30:50.012Z,26.00
2019-03-26T00:33:19.353Z,22.97
2019-03-26T00:35:48.711Z,21.63
2019-03-26T00:38:18.074Z,21.77
2019-03-26T00:40:47.444Z,24.13
2019-03-26T00:43:16.782Z,21.63
2019-03-26T00:45:46.135Z,23.03
2019-03-26T00:48:15.561Z,23.23
2019-03-26T00:50:44.921Z,25.00
2019-03-26T00:53:14.352Z,20.90
2019-03-26T00:55:43.724Z,20.53
2019-03-26T00:58:13.085Z,22.03
2019-03-26T01:00:44.061Z,22.03
2019-03-26T01:03:13.680Z,22.30
2019-03-26T01:05:43.301Z,21.10
2019-03-26T01:08:12.842Z,26.23
2019-03-26T01:10:42.313Z,21.47
2019-03-26T01:13:11.725Z,21.47
2019-03-26T01:15:41.221Z,24.50
2019-03-26T01:18:10.662Z,23.13
2019-03-26T01:20:40.160Z,24.17
2019-03-26T01:23:09.576Z,25.50
2019-03-26T01:25:39.691Z,24.73
2019-03-26T01:28:09.272Z,24.00
2019-03-26T01:30:38.726Z,25.53
2019-03-26T01:33:08.205Z,26.20
2019-03-26T01:35:37.641Z,27.67
2019-03-26T01:38:07.169Z,23.50
2019-03-26T01:40:36.517Z,22.63
2019-03-26T01:43:06.006Z,33.17
2019-03-26T01:45:35.933Z,22.87
2019-03-26T01:48:05.332Z,30.17
2019-03-26T01:50:34.773Z,29.17
2019-03-26T01:53:04.244Z,34.20
2019-03-26T01:55:33.609Z,32.93
2019-03-26T01:58:03.035Z,30.73
2019-03-26T02:00:32.779Z,49.27
2019-03-26T02:03:03.618Z,45.30
2019-03-26T02:05:33.361Z,90.77
2019-03-26T02:08:02.776Z,47.83
2019-03-26T02:10:32.228Z,37.43
2019-03-26T02:13:01.664Z,51.47
2019-03-26T02:15:32.605Z,423.60
2019-03-26T02:18:02.362Z,514.37
2019-03-26T02:20:32.097Z,670.53
2019-03-26T02:23:01.585Z,596.63
2019-03-26T02:25:31.039Z,306.90
2019-03-26T02:28:00.444Z,38.80
2019-03-26T02:30:30.363Z,51.10
2019-03-26T02:33:00.128Z,47.20
2019-03-26T02:35:29.633Z,83.50
2019-03-26T02:37:59.193Z,135.47
2019-03-26T02:40:29.081Z,154.73
2019-03-26T02:42:58.550Z,161.70
2019-03-26T02:45:28.153Z,69.83
2019-03-26T02:47:57.531Z,98.03
2019-03-26T02:50:29.407Z,101.73
2019-03-26T02:52:58.962Z,55.57
2019-03-26T02:55:28.314Z,57.13
2019-03-26T02:57:57.739Z,42.03
2019-03-26T03:00:27.155Z,44.53
2019-03-26T03:02:57.049Z,51.93
2019-03-26T03:05:35.315Z,44.13
2019-03-26T03:07:57.646Z,34.43
2019-03-26T03:10:27.511Z,38.07
2019-03-26T03:12:57.019Z,33.77
2019-03-26T03:15:26.452Z,32.67
2019-03-26T03:17:56.124Z,39.63
2019-03-26T03:20:26.851Z,47.30
2019-03-26T03:22:56.958Z,43.53
2019-03-26T03:25:26.475Z,55.90
2019-03-26T03:27:56.348Z,41.90
2019-03-26T03:30:26.179Z,50.60
2019-03-26T03:32:55.534Z,38.47
2019-03-26T03:35:24.973Z,45.30
2019-03-26T03:37:54.393Z,47.67
2019-03-26T03:40:23.844Z,44.57
2019-03-26T03:42:53.257Z,50.60
2019-03-26T03:45:30.014Z,50.37
2019-03-26T03:48:06.411Z,47.20
2019-03-26T03:50:37.533Z,43.33
2019-03-26T03:53:07.566Z,38.37
2019-03-26T03:55:37.010Z,34.63
2019-03-26T03:58:06.706Z,46.47
2019-03-26T04:00:42.673Z,41.83
2019-03-26T04:03:33.550Z,52.77
2019-03-26T04:06:22.362Z,61.60
2019-03-26T04:08:51.814Z,109.57
2019-03-26T04:11:36.769Z,43.37
2019-03-26T04:14:25.207Z,152.20
2019-03-26T04:16:55.620Z,266.67
2019-03-26T04:19:50.619Z,55.73
2019-03-26T04:22:41.659Z,40.63
2019-03-26T04:25:11.268Z,39.77
2019-03-26T04:27:40.640Z,28.23
2019-03-26T04:30:14.327Z,33.60
2019-03-26T04:32:43.830Z,28.97
2019-03-26T04:35:14.946Z,36.90
2019-03-26T04:37:44.361Z,36.27
2019-03-26T04:40:21.725Z,184.43
2019-03-26T04:42:56.465Z,83.03
2019-03-26T04:45:25.918Z,32.20
2019-03-26T04:47:55.445Z,29.77
2019-03-26T04:50:25.109Z,17.63
2019-03-26T04:52:55.334Z,20.43
2019-03-26T04:55:40.397Z,21.27
2019-03-26T04:58:09.779Z,18.50
2019-03-26T05:00:50.624Z,15.40
2019-03-26T05:03:42.118Z,18.10
2019-03-26T05:06:11.489Z,12.13
2019-03-26T05:08:49.706Z,14.20
2019-03-26T05:11:22.462Z,17.10
2019-03-26T05:13:51.809Z,14.67
2019-03-26T05:16:21.230Z,19.10
2019-03-26T05:18:50.778Z,23.37
2019-03-26T05:21:20.181Z,20.83
2019-03-26T05:23:51.882Z,20.03
2019-03-26T05:26:32.684Z,20.00
2019-03-26T05:29:02.029Z,19.07
2019-03-26T05:31:33.691Z,13.07
2019-03-26T05:34:03.128Z,16.60
2019-03-26T05:36:32.658Z,15.67
2019-03-26T05:39:02.004Z,13.13
2019-03-26T05:41:31.385Z,13.23
2019-03-26T05:44:00.811Z,14.40
2019-03-26T05:46:30.203Z,14.93
2019-03-26T05:48:59.571Z,9.83
2019-03-26T05:51:29.012Z,10.63
2019-03-26T05:54:05.104Z,14.37
2019-03-26T05:56:34.542Z,20.20
2019-03-26T05:59:03.934Z,11.10
2019-03-26T06:01:33.324Z,11.47
2019-03-26T06:04:12.485Z,13.30
2019-03-26T06:06:41.923Z,12.53
2019-03-26T06:09:14.117Z,15.20
2019-03-26T06:12:01.459Z,15.10
2019-03-26T06:14:35.643Z,5.10
2019-03-26T06:17:05.281Z,10.20
2019-03-26T06:19:34.817Z,11.25
2019-03-26T06:22:05.946Z,11.07
2019-03-26T06:24:45.141Z,7.40
2019-03-26T06:27:17.706Z,6.90
2019-03-26T06:29:47.050Z,7.17
2019-03-26T06:32:16.381Z,13.70
2019-03-26T06:34:45.824Z,10.83
2019-03-26T06:37:18.198Z,13.68
2019-03-26T06:39:59.424Z,9.00
2019-03-26T06:42:31.314Z,12.00
2019-03-26T06:45:00.754Z,14.67
2019-03-26T06:47:30.089Z,9.67
2019-03-26T06:50:00.014Z,13.73
2019-03-26T06:52:29.444Z,8.33
2019-03-26T06:55:05.185Z,18.97
2019-03-26T06:57:35.834Z,17.03
2019-03-26T07:00:07.499Z,17.17
2019-03-26T07:02:37.340Z,12.27
2019-03-26T07:05:08.387Z,13.00
2019-03-26T07:07:37.728Z,10.80
2019-03-26T07:10:08.343Z,12.63
2019-03-26T07:12:37.796Z,15.33
2019-03-26T07:15:08.408Z,16.67
2019-03-26T07:17:37.825Z,13.63
2019-03-26T07:20:08.286Z,10.60
2019-03-26T07:22:37.809Z,11.50
2019-03-26T07:25:08.015Z,13.23
2019-03-26T07:27:37.645Z,9.83
2019-03-26T07:30:07.469Z,11.90
2019-03-26T07:32:36.789Z,8.60
2019-03-26T07:35:06.976Z,10.77
2019-03-26T07:37:45.176Z,15.97
2019-03-26T07:40:10.159Z,10.30
2019-03-26T07:42:39.574Z,10.40
2019-03-26T07:45:10.570Z,6.93
2019-03-26T07:47:39.925Z,9.63
2019-03-26T07:50:09.454Z,16.03
2019-03-26T07:52:38.791Z,9.60
2019-03-26T07:55:09.239Z,16.77
2019-03-26T07:57:38.656Z,9.93
2019-03-26T08:00:10.402Z,9.23
2019-03-26T08:02:39.760Z,11.17
2019-03-26T08:05:09.448Z,9.00
2019-03-26T08:07:38.957Z,11.60
2019-03-26T08:10:09.886Z,12.63
2019-03-26T08:12:39.269Z,13.03
2019-03-26T08:15:09.078Z,13.43
2019-03-26T08:17:38.962Z,13.97
2019-03-26T08:20:12.510Z,13.70
2019-03-26T08:22:41.221Z,11.17
2019-03-26T08:25:11.068Z,12.00
2019-03-26T08:27:40.538Z,12.33
2019-03-26T08:30:10.026Z,9.97
2019-03-26T08:32:39.345Z,12.67
2019-03-26T08:35:08.882Z,10.20
2019-03-26T08:37:38.290Z,10.73
2019-03-26T08:40:07.991Z,17.53
2019-03-26T08:42:37.392Z,11.87
2019-03-26T08:45:07.608Z,10.27
2019-03-26T08:47:36.942Z,10.30
2019-03-26T08:50:07.381Z,9.63
2019-03-26T08:52:36.807Z,13.43
2019-03-26T08:55:07.346Z,15.70
2019-03-26T08:57:36.707Z,9.73
2019-03-26T09:00:07.106Z,6.57
2019-03-26T09:02:36.501Z,10.87
2019-03-26T09:05:06.884Z,11.70
2019-03-26T09:07:36.386Z,10.77
2019-03-26T09:10:07.232Z,13.43
2019-03-26T09:12:39.378Z,16.80
2019-03-26T09:15:09.263Z,8.90
2019-03-26T09:17:38.712Z,12.93
2019-03-26T09:20:10.817Z,7.47
2019-03-26T09:22:40.243Z,13.43
2019-03-26T09:25:10.164Z,9.10
2019-03-26T09:27:39.593Z,10.03
2019-03-26T09:30:10.411Z,12.43
2019-03-26T09:32:40.086Z,10.83
2019-03-26T09:35:10.297Z,8.00
2019-03-26T09:37:39.746Z,7.53
2019-03-26T09:40:10.698Z,8.80
2019-03-26T09:42:40.110Z,6.47
2019-03-26T09:45:11.108Z,7.33
2019-03-26T09:47:40.530Z,7.60
2019-03-26T09:50:11.083Z,5.33
2019-03-26T09:52:42.456Z,8.47
2019-03-26T09:55:12.037Z,5.27
2019-03-26T09:57:41.404Z,6.83
2019-03-26T10:00:11.295Z,8.50
2019-03-26T10:02:43.107Z,5.40
2019-03-26T10:05:12.131Z,8.43
2019-03-26T10:07:41.587Z,10.07
2019-03-26T10:10:12.106Z,8.23
2019-03-26T10:12:41.474Z,7.53
2019-03-26T10:15:11.082Z,5.50
2019-03-26T10:17:40.577Z,8.43
2019-03-26T10:20:10.224Z,7.90
2019-03-26T10:22:39.651Z,9.60
2019-03-26T10:25:11.324Z,6.07
2019-03-26T10:27:41.046Z,9.00
2019-03-26T10:30:11.473Z,6.00
2019-03-26T10:32:40.903Z,6.77
2019-03-26T10:35:10.860Z,3.80
2019-03-26T10:37:40.206Z,7.90
2019-03-26T10:40:11.972Z,9.30
2019-03-26T10:42:41.333Z,5.30
2019-03-26T10:45:10.910Z,6.10
2019-03-26T10:47:40.318Z,4.97
2019-03-26T10:50:10.186Z,8.10
2019-03-26T10:52:39.593Z,5.93
2019-03-26T10:55:09.420Z,5.70
2019-03-26T10:57:38.763Z,6.43
2019-03-26T11:00:08.898Z,4.00
2019-03-26T11:02:38.259Z,3.53
2019-03-26T11:05:08.016Z,10.03
2019-03-26T11:07:37.386Z,6.37
2019-03-26T11:10:07.119Z,11.43
2019-03-26T11:12:36.537Z,9.07
2019-03-26T11:15:06.381Z,6.70
2019-03-26T11:17:35.795Z,7.50
2019-03-26T11:20:07.190Z,6.50
2019-03-26T11:22:38.806Z,5.60
2019-03-26T11:25:11.877Z,6.50
2019-03-26T11:27:39.954Z,6.87
2019-03-26T11:30:10.284Z,7.47
2019-03-26T11:32:39.810Z,3.90
2019-03-26T11:35:09.600Z,9.50
2019-03-26T11:37:39.425Z,7.30
2019-03-26T11:40:09.702Z,6.23
2019-03-26T11:42:39.329Z,10.93
2019-03-26T11:45:09.702Z,6.03
2019-03-26T11:47:39.693Z,9.50
2019-03-26T11:50:14.096Z,8.93
2019-03-26T11:52:45.610Z,8.43
2019-03-26T11:55:15.128Z,8.60
2019-03-26T11:57:44.473Z,9.97
2019-03-26T12:00:18.880Z,10.90
2019-03-26T12:02:48.265Z,11.20
2019-03-26T12:05:17.602Z,10.70
2019-03-26T12:07:47.462Z,8.93
2019-03-26T12:10:19.653Z,7.00
2019-03-26T12:13:02.174Z,6.43
2019-03-26T12:15:44.055Z,11.10
2019-03-26T12:18:16.228Z,9.60
2019-03-26T12:20:45.561Z,6.87
2019-03-26T12:23:20.289Z,10.07
2019-03-26T12:25:50.521Z,16.33
2019-03-26T12:28:20.051Z,10.30
2019-03-26T12:30:49.451Z,8.40
2019-03-26T12:33:18.947Z,10.50
2019-03-26T12:35:48.405Z,9.77
2019-03-26T12:38:49.833Z,7.67
2019-03-26T12:41:25.062Z,7.70
2019-03-26T12:43:54.710Z,7.40
2019-03-26T12:46:24.123Z,8.80
2019-03-26T12:49:02.434Z,8.10
2019-03-26T12:51:34.561Z,8.77
2019-03-26T12:54:07.028Z,7.50
2019-03-26T12:56:38.260Z,7.90
2019-03-26T12:59:08.552Z,13.37
2019-03-26T13:01:44.258Z,9.30
2019-03-26T13:04:23.829Z,9.67
2019-03-26T13:06:53.446Z,10.20
2019-03-26T13:09:24.069Z,11.60
2019-03-26T13:11:53.734Z,12.73
2019-03-26T13:14:23.278Z,10.00
2019-03-26T13:17:11.748Z,8.00
2019-03-26T13:19:41.515Z,12.60
2019-03-26T13:22:13.360Z,8.07
2019-03-26T13:24:42.907Z,5.57
2019-03-26T13:27:12.252Z,8.00
2019-03-26T13:29:53.707Z,13.70
2019-03-26T13:32:23.293Z,14.43
2019-03-26T13:34:52.757Z,10.50
2019-03-26T13:37:22.274Z,10.00
2019-03-26T13:39:52.882Z,8.13
2019-03-26T13:42:22.479Z,9.77
2019-03-26T13:44:52.139Z,8.87
2019-03-26T13:47:22.470Z,6.33
2019-03-26T13:49:52.017Z,6.23
2019-03-26T13:52:21.710Z,12.30
2019-03-26T13:54:51.798Z,9.10
2019-03-26T13:57:22.342Z,10.53
2019-03-26T13:59:55.521Z,8.93
2019-03-26T14:02:25.539Z,8.43
2019-03-26T14:04:55.202Z,9.17
2019-03-26T14:07:27.879Z,8.30
2019-03-26T14:09:57.787Z,9.67
2019-03-26T14:12:29.037Z,9.93
2019-03-26T14:14:58.962Z,8.97
2019-03-26T14:17:28.594Z,10.27
2019-03-26T14:19:58.477Z,9.20
2019-03-26T14:22:27.846Z,9.13
2019-03-26T14:25:02.742Z,8.50
2019-03-26T14:27:43.221Z,9.60
2019-03-26T14:30:15.592Z,6.33
2019-03-26T14:32:44.990Z,8.67
2019-03-26T14:35:46.265Z,8.77
2019-03-26T14:37:55.367Z,10.43
2019-03-26T14:40:27.231Z,7.90
2019-03-26T14:43:00.905Z,9.17
2019-03-26T14:45:33.193Z,9.83
2019-03-26T14:48:05.280Z,6.30
2019-03-26T14:50:34.995Z,6.53
2019-03-26T14:53:04.628Z,4.87
2019-03-26T14:56:07.299Z,6.33
2019-03-26T14:58:37.353Z,7.27
2019-03-26T15:01:18.340Z,7.80
2019-03-26T15:03:52.623Z,7.23
2019-03-26T15:06:25.011Z,8.93
2019-03-26T15:08:59.111Z,5.43
2019-03-26T15:11:28.617Z,6.07
2019-03-26T15:13:57.953Z,6.40
2019-03-26T15:16:27.512Z,6.00
2019-03-26T15:18:56.942Z,6.13
2019-03-26T15:21:40.426Z,6.07
2019-03-26T15:24:45.919Z,6.63
2019-03-26T15:27:15.463Z,8.43
2019-03-26T15:29:45.002Z,6.37
2019-03-26T15:32:16.503Z,8.13
2019-03-26T15:34:48.468Z,7.00
2019-03-26T15:37:19.867Z,7.20
2019-03-26T15:40:06.174Z,9.97
2019-03-26T15:42:51.488Z,10.47
2019-03-26T15:45:21.078Z,9.17
2019-03-26T15:47:50.425Z,10.90
2019-03-26T15:50:38.922Z,7.13
2019-03-26T15:53:08.446Z,8.43
2019-03-26T15:55:38.142Z,6.23
2019-03-26T15:58:07.618Z,8.90
2019-03-26T16:00:36.947Z,8.33
2019-03-26T16:03:06.354Z,13.70
2019-03-26T16:05:35.690Z,7.50
2019-03-26T16:08:05.026Z,7.33
2019-03-26T16:10:34.373Z,6.43
2019-03-26T16:13:03.781Z,10.20
2019-03-26T16:15:43.551Z,7.63
2019-03-26T16:18:04.306Z,9.00
2019-03-26T16:20:33.671Z,5.10
2019-03-26T16:23:03.020Z,7.03
2019-03-26T16:25:32.441Z,6.73
2019-03-26T16:28:01.759Z,6.60
2019-03-26T16:30:34.308Z,6.17
2019-03-26T16:33:02.354Z,7.53
2019-03-26T16:35:31.777Z,6.53
2019-03-26T16:38:01.268Z,5.00
2019-03-26T16:40:30.765Z,5.23
2019-03-26T16:43:00.553Z,6.63
2019-03-26T16:45:29.971Z,10.07
2019-03-26T16:47:59.411Z,8.07
2019-03-26T16:50:29.018Z,6.67
2019-03-26T16:52:58.622Z,6.53
2019-03-26T16:55:28.015Z,10.27
2019-03-26T16:57:57.353Z,8.83
2019-03-26T17:00:34.054Z,7.00
2019-03-26T17:03:03.759Z,5.30
2019-03-26T17:05:33.271Z,5.33
2019-03-26T17:08:02.923Z,5.90
2019-03-26T17:10:32.414Z,8.43
2019-03-26T17:13:02.010Z,6.90
2019-03-26T17:15:31.388Z,7.60
2019-03-26T17:18:00.881Z,7.20
2019-03-26T17:20:30.300Z,8.20
2019-03-26T17:22:59.795Z,12.70
2019-03-26T17:25:29.187Z,7.17
2019-03-26T17:27:58.877Z,8.03
2019-03-26T17:30:29.526Z,9.53
2019-03-26T17:32:59.192Z,8.30
2019-03-26T17:35:29.019Z,10.90
2019-03-26T17:37:59.954Z,9.53
2019-03-26T17:40:29.706Z,9.90
2019-03-26T17:42:59.182Z,10.53
2019-03-26T17:45:31.637Z,7.10
2019-03-26T17:48:01.387Z,9.80
2019-03-26T17:50:33.261Z,7.10
2019-03-26T17:53:02.375Z,6.90
2019-03-26T17:55:33.127Z,7.10
2019-03-26T17:58:02.614Z,9.47
2019-03-26T18:00:43.854Z,6.67
2019-03-26T18:03:25.694Z,10.43
2019-03-26T18:05:50.523Z,6.20
2019-03-26T18:08:28.671Z,9.43
2019-03-26T18:10:58.231Z,7.30
2019-03-26T18:13:31.132Z,7.13
2019-03-26T18:16:01.754Z,5.90
2019-03-26T18:18:31.193Z,12.80
2019-03-26T18:21:00.762Z,8.27
2019-03-26T18:23:30.301Z,8.47
2019-03-26T18:25:59.774Z,5.67
2019-03-26T18:28:29.369Z,6.27
2019-03-26T18:30:58.889Z,6.10
2019-03-26T18:33:30.483Z,6.33
2019-03-26T18:36:00.076Z,8.27
2019-03-26T18:38:29.469Z,10.20
2019-03-26T18:40:58.815Z,8.40
2019-03-26T18:43:28.359Z,7.70
2019-03-26T18:45:57.814Z,8.10
2019-03-26T18:48:27.304Z,10.07
2019-03-26T18:51:03.502Z,7.20
2019-03-26T18:53:34.387Z,6.90
2019-03-26T18:56:09.073Z,6.70
2019-03-26T18:58:38.513Z,8.33
2019-03-26T19:01:11.127Z,8.90
2019-03-26T19:03:46.125Z,7.23
2019-03-26T19:06:15.998Z,8.67
2019-03-26T19:08:45.710Z,6.27
2019-03-26T19:11:15.786Z,8.17
2019-03-26T19:13:45.169Z,7.87
2019-03-26T19:16:20.349Z,6.47
2019-03-26T19:19:30.939Z,9.10
2019-03-26T19:22:41.563Z,9.43
2019-03-26T19:25:29.995Z,10.87
2019-03-26T19:27:59.532Z,8.30
2019-03-26T19:30:31.901Z,6.87
2019-03-26T19:33:02.653Z,8.23
2019-03-26T19:35:32.133Z,8.60
2019-03-26T19:38:08.643Z,8.67
2019-03-26T19:40:59.729Z,8.47
2019-03-26T19:43:48.225Z,12.17
2019-03-26T19:46:42.069Z,9.33
2019-03-26T19:49:17.677Z,10.40
2019-03-26T19:52:07.537Z,9.00
2019-03-26T19:54:36.993Z,9.70
2019-03-26T19:57:42.188Z,12.73
2019-03-26T20:00:13.583Z,10.90
2019-03-26T20:03:03.748Z,12.40
2019-03-26T20:05:35.393Z,12.10
2019-03-26T20:08:04.272Z,16.50
2019-03-26T20:10:33.782Z,12.67
2019-03-26T20:13:03.251Z,12.90
2019-03-26T20:15:32.768Z,12.30
2019-03-26T20:18:02.213Z,11.77
2019-03-26T20:20:31.595Z,10.73
2019-03-26T20:23:01.897Z,13.13
2019-03-26T20:25:31.362Z,13.30
2019-03-26T20:28:00.789Z,12.27
2019-03-26T20:30:30.255Z,14.13
2019-03-26T20:33:00.257Z,13.13
2019-03-26T20:35:31.304Z,12.63
2019-03-26T20:38:00.726Z,15.00
2019-03-26T20:40:30.300Z,17.73
2019-03-26T20:42:59.678Z,14.63
2019-03-26T20:45:29.037Z,12.63
2019-03-26T20:47:58.379Z,9.87
2019-03-26T20:50:28.081Z,9.53
2019-03-26T20:52:57.505Z,16.20
2019-03-26T20:55:36.562Z,10.70
2019-03-26T20:58:06.078Z,8.97
2019-03-26T21:00:41.489Z,11.63
2019-03-26T21:03:10.909Z,12.67
2019-03-26T21:05:40.549Z,8.77
2019-03-26T21:08:10.134Z,17.63
2019-03-26T21:10:39.589Z,13.27
2019-03-26T21:13:09.080Z,9.30
2019-03-26T21:15:57.410Z,15.67
2019-03-26T21:18:50.232Z,8.27
2019-03-26T21:21:23.393Z,9.30
2019-03-26T21:23:53.053Z,9.03
2019-03-26T21:26:45.681Z,13.17
2019-03-26T21:32:28.326Z,16.83
2019-03-26T21:35:28.656Z,16.60
2019-03-26T21:38:25.703Z,19.23
2019-03-26T21:41:17.955Z,17.77
2019-03-26T21:43:47.525Z,16.67
2019-03-26T21:46:17.477Z,12.93
2019-03-26T21:48:47.192Z,14.60
2019-03-26T21:51:16.765Z,13.13
2019-03-26T21:53:46.801Z,13.57
2019-03-26T21:56:16.655Z,21.97
2019-03-26T21:59:13.535Z,14.83
2019-03-26T22:01:47.693Z,12.33
2019-03-26T22:04:17.197Z,13.70
2019-03-26T22:07:12.025Z,14.17
2019-03-26T22:13:08.482Z,14.07
2019-03-26T22:15:38.273Z,15.27
2019-03-26T22:18:07.716Z,9.10
2019-03-26T22:20:38.016Z,8.07
2019-03-26T22:23:11.722Z,10.93
2019-03-26T22:25:43.353Z,12.50
2019-03-26T22:28:14.157Z,19.27
2019-03-26T22:30:44.016Z,12.90
2019-03-26T22:33:19.358Z,14.67
2019-03-26T22:35:49.082Z,13.70
2019-03-26T22:38:29.132Z,15.00
2019-03-26T22:40:58.637Z,9.20
2019-03-26T22:43:28.023Z,9.93
2019-03-26T22:46:00.156Z,10.73
2019-03-26T22:48:29.597Z,15.30
2019-03-26T22:50:58.961Z,12.40
2019-03-26T22:53:28.401Z,11.50
2019-03-26T22:55:57.874Z,11.90
2019-03-26T22:58:27.224Z,11.97
2019-03-26T23:00:56.799Z,14.63
2019-03-26T23:03:26.251Z,12.47
2019-03-26T23:05:55.767Z,12.23
2019-03-26T23:08:25.128Z,12.20
2019-03-26T23:10:54.498Z,14.00
2019-03-26T23:13:23.953Z,12.70
2019-03-26T23:15:53.426Z,13.60
2019-03-26T23:18:22.900Z,10.00
2019-03-26T23:20:52.315Z,9.40
2019-03-26T23:23:23.755Z,9.50
2019-03-26T23:25:53.216Z,12.00
2019-03-26T23:28:22.735Z,9.27
2019-03-26T23:30:52.185Z,11.50
2019-03-26T23:33:21.548Z,8.17
2019-03-26T23:35:51.002Z,8.30
2019-03-26T23:38:20.378Z,11.70
2019-03-26T23:40:49.749Z,12.77
2019-03-26T23:43:19.234Z,12.00
2019-03-26T23:45:48.648Z,13.07
2019-03-26T23:48:18.025Z,6.77
2019-03-26T23:50:47.457Z,11.60
2019-03-26T23:53:16.806Z,9.47
2019-03-26T23:55:46.322Z,9.80
2019-03-26T23:58:15.674Z,11.40
